Friday, October 24, 2014
21:25 UTC
  |  Log In   |  Register Free
Airport Search:

South Alabama Regional At Bill Benton Field Airport
(K79J)

South Alabama Regional At Bill Benton Field Airport Diagram
No Airport Diagram Available

FAA data valid effective September 18, 2014 - November 13, 2014 (unless otherwise noted).

 
 
 
 
 
 
 
 
 
 
 
 
 
 

Current Aviation Weather for South Alabama Regional At Bill Benton Field Airport (K79J)

The most recent METAR observation for K79J was updated at: 2111
METAR Summary (Translated METAR)
K79J
242056Z AUTO 02005KT 10SM CLR 27/06 A3000 RMK AO2 SLP156 T02720056 55009
K0J4
242058Z AUTO 36005KT 10SM -RA CLR 25/06 A3001 RMK AO2 SLP161 P0000 60000 T02500061 55008 $
(16.5 nm SE from K79J)
KEDN
242055Z AUTO 33006KT 10SM CLR 23/06 A2999 RMK AO2
(25.3 nm SE from K79J)
TAF
No TAF information found within 50 nm of KLOR
  Airport Weather Conditions for K79J

 Current Weather at 79J
81° F
Fair
North winds at 5.8 mph
79J NOAA Radar

Pressure: 30.00 in
Humidity: 25%
Wind: North at 5.8 MPH (5 KT)
Dew Point: 42.1°F
Visibility: 10.00 mi


Airport Weather Forecast for K79J

Translated METAR and TAF for KLOR
Translated METAR for KLOR (2120 UTC 24 October 2014)
found at http://aviationweather.gov/adds/metars/
 
METAR text: KLOR 242053Z AUTO 35005KT 10SM CLR 24/05 A2998 RMK AO2 SLP150 T02440050 55009 TSNO $
Conditions at: KLOR (LOWE AHP/FT. RUC, AL, US) observed 2053 UTC 24 October 2014
Temperature: 24.4°C (76°F)
Dewpoint: 5.0°C (41°F) [RH = 29%]
Pressure (altimeter): 29.98 inches Hg (1015.3 mb)
[Sea-level pressure: 1015.0 mb]
Winds: from the N (350 degrees) at 6 MPH (5 knots; 2.6 m/s)
Visibility: 10 or more miles (16+ km)
Ceiling: at least 12,000 feet AGL
Clouds: sky clear below 12,000 feet AGL
Weather:
SOME DATA ABOVE MAY BE INACCURATE!!!
"$" is an indication the sensor requires maintenance
Translated TAF for KLOR

There is no translated TAF available for this airport

Find All Airport Services Find A Hotel Find A Rental Car Find A Golf Course Find A Restaurant $100 Hamburger



FBO's on the Field
FBO Company Facility Photos Services Transportation Aviation Fuel Prices: Prices include tax
Catering Weather Repair Courtesy Rental Type 100LL JetA JetA+ MOGAS 8087
 
South Alabama Regional Airport

This FBO has not yet been rated
FS: Phillips 66
Last Updated: Oct-07
Login to update fuel prices
SS:
Contact South Alabama Regional AirportMore FBO Information
 
Add another FBO Facility Photos Catering Weather Repair Courtesy Rental Type 100LL JetA JetA+ MOGAS 8087
Services Transportation Aviation Fuel Prices: Prices include tax


model-print
model-print
model-print
model-print